Rogers City, Michigan
Current Conditions -  °F | °C
As of 7:14 AM on Sunday 25 Jan 2015 (Local Time) from KPZQ Reporting Station
Scattered Clouds Scattered Clouds  
Wind Chill: -1°   Ceiling: Unl
Heat Index: 11°   Visibility: 10mi
Dew Point:   Wind: 8mph
Humidity: 79%   Direction: 20°NNE
Pressure: 29.97"   Gusts: 18mph
Location:  45.42°N, 83.82°W
Report Text: KPZQ 251214Z AUTO 02007G16KT 10SM SCT017 M12/M15 A2997 RMK AO2 T11161146
Loading
Personal Weather Stations






























Interactive Weather Map New forecast layout! Learn more

10-Day Weather Forecast

Advertisements
Track Severe Weather on mobile